Time;durP1;ratioP1;P1;durP2;ratioP2;P2;SDS_P1;SDS_P2;PMS_P1;PMS_P2;Temp;Humidity;BMP_temperature;BMP_pressure;BME280_temperature;BME280_humidity;BME280_pressure;Samples;Min_cycle;Max_cycle;Signal;HPM_P1;HPM_P2
2021/11/14 00:02:08;;;;;;;22.63;13.18;;;6.50;99.90;;;;;;12268133;28;20299;-87
2021/11/14 00:08:13;;;;;;;19.65;13.10;;;6.50;99.90;;;;;;12252016;28;20051;-89
2021/11/14 00:14:15;;;;;;;21.17;12.95;;;6.50;99.90;;;;;;12231033;28;20329;-89
2021/11/14 00:20:18;;;;;;;19.88;13.55;;;6.50;99.90;;;;;;12259559;28;20071;-88
2021/11/14 00:26:21;;;;;;;19.25;13.23;;;6.40;99.90;;;;;;12249019;28;20417;-87
2021/11/14 00:32:25;;;;;;;24.33;13.27;;;6.40;99.90;;;;;;12253046;28;20503;-87
2021/11/14 00:38:27;;;;;;;22.23;13.48;;;6.40;99.90;;;;;;12247347;28;20525;-87
2021/11/14 00:44:29;;;;;;;18.73;13.32;;;6.40;99.90;;;;;;12263961;28;20051;-89
2021/11/14 00:50:32;;;;;;;18.80;12.35;;;6.40;99.90;;;;;;12263962;28;20105;-89
2021/11/14 00:56:34;;;;;;;18.88;12.40;;;6.50;99.90;;;;;;12253974;28;20090;-87
2021/11/14 01:02:43;;;;;;;22.05;12.80;;;6.60;99.90;;;;;;12261678;28;20054;-88
2021/11/14 01:08:48;;;;;;;21.30;12.50;;;6.50;99.90;;;;;;12269618;28;20395;-89
2021/11/14 01:14:50;;;;;;;24.83;13.57;;;6.50;99.90;;;;;;12244717;28;20066;-87
2021/11/14 01:20:56;;;;;;;20.35;13.80;;;6.50;99.90;;;;;;12250654;28;20047;-87
2021/11/14 01:26:58;;;;;;;22.17;13.70;;;6.40;99.90;;;;;;12253070;28;20578;-89
2021/11/14 01:33:03;;;;;;;20.55;13.18;;;6.40;99.90;;;;;;12245413;28;20605;-88
2021/11/14 01:39:08;;;;;;;;;;;6.40;99.90;;;;;;12247634;28;20443;-88
2021/11/14 01:45:11;;;;;;;21.75;14.32;;;6.40;99.90;;;;;;12247720;28;20013;-87
2021/11/14 01:51:15;;;;;;;24.30;14.93;;;6.50;99.90;;;;;;12258311;28;20043;-89
2021/11/14 01:57:18;;;;;;;23.55;14.48;;;6.50;99.90;;;;;;12250345;28;20047;-89
2021/11/14 02:03:21;;;;;;;21.95;14.57;;;6.50;99.90;;;;;;12249313;28;20043;-88
2021/11/14 02:09:23;;;;;;;24.33;14.65;;;6.50;99.90;;;;;;12250284;28;20066;-87
2021/11/14 02:15:25;;;;;;;21.88;14.07;;;6.50;99.90;;;;;;12242941;28;20059;-88
2021/11/14 02:21:28;;;;;;;24.25;15.40;;;6.50;99.90;;;;;;12246950;28;20062;-89
2021/11/14 02:27:30;;;;;;;22.73;13.80;;;6.50;99.90;;;;;;12258156;28;20051;-87
2021/11/14 02:33:32;;;;;;;25.58;13.70;;;6.50;99.90;;;;;;12250706;28;20081;-88
2021/11/14 02:39:36;;;;;;;24.10;14.27;;;6.50;99.90;;;;;;12268179;28;20136;-87
2021/11/14 02:45:40;;;;;;;23.77;14.30;;;6.50;99.90;;;;;;12268138;28;20047;-88
2021/11/14 02:51:42;;;;;;;22.00;14.30;;;6.50;99.90;;;;;;12254980;28;20543;-89
2021/11/14 02:57:44;;;;;;;25.65;16.15;;;6.50;99.90;;;;;;12253631;28;20051;-89
2021/11/14 03:03:48;;;;;;;22.92;14.93;;;6.50;99.90;;;;;;12268212;28;20118;-88
2021/11/14 03:09:50;;;;;;;23.60;14.63;;;6.50;99.90;;;;;;12265735;28;20054;-89
2021/11/14 03:15:58;;;;;;;26.38;16.27;;;6.50;99.90;;;;;;12246836;28;20051;-89
2021/11/14 03:22:01;;;;;;;25.02;15.88;;;6.50;99.90;;;;;;12262058;28;20066;-89
2021/11/14 03:28:04;;;;;;;25.17;15.65;;;6.50;99.90;;;;;;12260634;28;20055;-89
2021/11/14 03:34:07;;;;;;;25.30;15.90;;;6.50;99.90;;;;;;12258974;28;20555;-89
2021/11/14 03:40:11;;;;;;;27.83;15.52;;;6.50;99.90;;;;;;12248840;28;20798;-88
2021/11/14 03:46:13;;;;;;;23.58;15.55;;;6.50;99.90;;;;;;12247318;28;20066;-87
2021/11/14 03:52:15;;;;;;;25.73;15.75;;;6.50;99.90;;;;;;12250986;28;20070;-88
2021/11/14 03:58:18;;;;;;;23.65;15.20;;;6.60;99.90;;;;;;12270614;28;20047;-88
2021/11/14 04:04:20;;;;;;;24.05;15.45;;;6.60;99.90;;;;;;12250181;28;20094;-88
2021/11/14 04:10:22;;;;;;;23.13;15.05;;;6.60;99.90;;;;;;12242457;28;20469;-89
2021/11/14 04:16:26;;;;;;;28.42;17.02;;;6.60;99.90;;;;;;12244635;28;20073;-87
2021/11/14 04:22:28;;;;;;;25.00;15.77;;;6.50;99.90;;;;;;12250821;28;20459;-88
2021/11/14 04:28:32;;;;;;;23.63;15.75;;;6.60;99.90;;;;;;12250348;28;20070;-88
2021/11/14 04:34:35;;;;;;;24.45;15.27;;;6.60;99.90;;;;;;12248603;28;20051;-88
2021/11/14 04:40:40;;;;;;;23.05;14.88;;;6.60;99.90;;;;;;12240846;28;20055;-89
2021/11/14 04:46:42;;;;;;;20.98;14.18;;;6.70;99.90;;;;;;12248165;28;20073;-87
2021/11/14 04:52:45;;;;;;;23.08;14.20;;;6.60;99.90;;;;;;12258993;28;20043;-86
2021/11/14 04:58:50;;;;;;;22.40;15.10;;;6.70;99.90;;;;;;12253197;28;20059;-88
2021/11/14 05:04:52;;;;;;;25.63;14.85;;;6.60;99.90;;;;;;12239266;28;20058;-88
2021/11/14 05:10:54;;;;;;;25.80;15.15;;;6.60;99.90;;;;;;12255549;28;21414;-86
2021/11/14 05:16:56;;;;;;;23.08;14.80;;;6.60;99.90;;;;;;12266226;28;20075;-86
2021/11/14 05:22:58;;;;;;;28.88;17.40;;;6.70;99.90;;;;;;12260979;28;20059;-87
2021/11/14 05:29:03;;;;;;;29.92;18.35;;;6.70;99.90;;;;;;12249187;28;20051;-88
2021/11/14 05:35:05;;;;;;;31.33;18.42;;;6.70;99.90;;;;;;12263224;28;20499;-87
2021/11/14 05:41:08;;;;;;;34.08;19.20;;;6.70;99.90;;;;;;12234699;28;20333;-87
2021/11/14 05:47:10;;;;;;;35.25;19.55;;;6.70;99.90;;;;;;12248034;28;20057;-87
2021/11/14 05:53:12;;;;;;;32.88;19.33;;;6.70;99.90;;;;;;12262507;28;20039;-88
2021/11/14 06:05:18;;;;;;;29.02;18.30;;;6.70;99.90;;;;;;12261985;28;20080;-88
2021/11/14 06:11:22;;;;;;;;;;;6.70;99.90;;;;;;12262307;28;20053;-86
2021/11/14 06:17:25;;;;;;;30.70;18.35;;;6.70;99.90;;;;;;12269274;28;19981;-88
2021/11/14 06:23:27;;;;;;;28.95;18.27;;;6.70;99.90;;;;;;12271910;28;20074;-88
2021/11/14 06:29:29;;;;;;;32.00;18.25;;;6.70;99.90;;;;;;12257389;28;20573;-88
2021/11/14 06:35:33;;;;;;;29.83;17.27;;;6.70;99.90;;;;;;12237727;28;20047;-89
2021/11/14 06:41:36;;;;;;;31.02;18.35;;;6.70;99.90;;;;;;12244590;28;20079;-88
2021/11/14 06:47:38;;;;;;;33.97;19.38;;;6.80;99.90;;;;;;12252001;28;20259;-87
2021/11/14 06:53:41;;;;;;;37.10;20.48;;;6.70;99.90;;;;;;12236012;28;20475;-88
2021/11/14 06:59:46;;;;;;;31.87;19.53;;;6.70;99.90;;;;;;12260996;28;20055;-87
2021/11/14 07:05:51;;;;;;;30.25;19.13;;;6.80;99.90;;;;;;12258143;28;20055;-88
2021/11/14 07:11:54;;;;;;;30.58;19.08;;;6.80;99.90;;;;;;12241448;28;20047;-88
2021/11/14 07:17:56;;;;;;;29.80;18.38;;;6.80;99.90;;;;;;12282970;28;20557;-88
2021/11/14 07:23:58;;;;;;;30.92;18.95;;;6.80;99.90;;;;;;12264491;28;20051;-87
2021/11/14 07:30:00;;;;;;;33.00;20.35;;;6.90;99.90;;;;;;12252635;28;20120;-88
2021/11/14 07:36:02;;;;;;;31.25;20.35;;;6.90;99.90;;;;;;12254678;28;20100;-88
2021/11/14 07:42:05;;;;;;;29.17;19.65;;;6.90;99.90;;;;;;12269437;28;20082;-88
2021/11/14 07:48:10;;;;;;;35.78;20.48;;;7.00;99.90;;;;;;12258774;28;20059;-88
2021/11/14 07:54:12;;;;;;;33.58;20.92;;;7.00;99.90;;;;;;12251868;28;20509;-87
2021/11/14 08:00:17;;;;;;;30.88;19.88;;;7.00;99.90;;;;;;12234878;28;20543;-88
2021/11/14 08:06:20;;;;;;;32.20;20.13;;;7.00;99.90;;;;;;12244911;28;20055;-89
2021/11/14 08:12:22;;;;;;;32.08;20.25;;;7.10;99.90;;;;;;12241059;28;20467;-88
2021/11/14 08:18:25;;;;;;;30.48;18.27;;;7.20;99.90;;;;;;12242794;28;20171;-86
2021/11/14 08:24:27;;;;;;;31.05;19.55;;;7.20;99.90;;;;;;12240997;28;20122;-89
2021/11/14 08:30:29;;;;;;;29.42;19.70;;;7.30;99.90;;;;;;12258469;28;20051;-87
2021/11/14 08:36:35;;;;;;;;;;;7.30;99.90;;;;;;12242985;28;20093;-88
2021/11/14 08:42:38;;;;;;;30.42;19.05;;;7.40;99.90;;;;;;12253802;28;20402;-87
2021/11/14 08:48:40;;;;;;;27.15;18.63;;;7.50;99.90;;;;;;12239763;28;20055;-87
2021/11/14 08:54:43;;;;;;;30.80;19.17;;;7.50;99.90;;;;;;12221499;28;20047;-89
2021/11/14 09:00:46;;;;;;;30.73;19.73;;;7.60;99.90;;;;;;12237278;28;20087;-88
2021/11/14 09:06:48;;;;;;;31.70;20.45;;;7.70;99.90;;;;;;12265998;28;20332;-87
2021/11/14 09:12:56;;;;;;;30.02;19.77;;;7.80;99.90;;;;;;12243078;28;20051;-89
2021/11/14 09:19:00;;;;;;;28.52;18.80;;;7.90;99.90;;;;;;12254290;28;20055;-89
2021/11/14 09:25:07;;;;;;;29.95;19.58;;;8.00;99.90;;;;;;12246172;28;20047;-88
2021/11/14 09:31:12;;;;;;;29.55;19.25;;;8.10;99.90;;;;;;12237644;28;20416;-88
2021/11/14 09:37:17;;;;;;;26.83;18.40;;;8.20;99.90;;;;;;12263859;28;20054;-88
2021/11/14 09:43:20;;;;;;;28.15;18.75;;;8.20;99.90;;;;;;12260281;28;20075;-88
2021/11/14 09:49:27;;;;;;;33.33;19.23;;;8.30;99.90;;;;;;12262661;28;20182;-87
2021/11/14 09:55:34;;;;;;;29.52;18.60;;;8.40;99.90;;;;;;12256524;28;20103;-87
2021/11/14 10:01:37;;;;;;;29.80;17.95;;;8.40;99.90;;;;;;12248929;28;20171;-89
2021/11/14 10:07:41;;;;;;;28.20;18.02;;;8.50;99.90;;;;;;12259523;28;20367;-88
2021/11/14 10:13:49;;;;;;;30.23;20.17;;;8.40;99.90;;;;;;12237770;28;20110;-87
2021/11/14 10:20:06;;;;;;;29.80;20.38;;;8.50;99.90;;;;;;12254608;28;20059;-88
2021/11/14 10:26:11;;;;;;;31.05;19.95;;;8.60;99.90;;;;;;12243199;28;20051;-87
2021/11/14 10:32:15;;;;;;;26.05;17.23;;;8.60;99.90;;;;;;12263724;28;20047;-89
2021/11/14 10:38:19;;;;;;;;;;;8.80;99.90;;;;;;12246573;28;21706;-89
2021/11/14 10:44:22;;;;;;;30.48;20.20;;;8.90;99.90;;;;;;12235708;28;20387;-89
2021/11/14 10:50:28;;;;;;;29.52;18.95;;;9.00;99.90;;;;;;12253576;28;20547;-90
2021/11/14 10:56:30;;;;;;;30.15;18.80;;;8.90;99.90;;;;;;12266151;28;20122;-87
2021/11/14 11:02:39;;;;;;;31.90;18.65;;;8.90;99.90;;;;;;12272869;28;20090;-88
2021/11/14 11:08:46;;;;;;;32.97;19.42;;;8.80;99.90;;;;;;12268718;28;20175;-89
2021/11/14 11:15:10;;;;;;;31.67;19.45;;;8.80;99.90;;;;;;12245940;28;20079;-89
2021/11/14 11:21:15;;;;;;;31.52;18.63;;;8.70;99.90;;;;;;12238468;28;20040;-89
2021/11/14 11:27:17;;;;;;;30.83;17.60;;;8.70;99.90;;;;;;12269322;28;20069;-88
2021/11/14 11:33:20;;;;;;;29.33;17.77;;;8.70;99.90;;;;;;12255138;28;20055;-86
2021/11/14 11:39:25;;;;;;;28.67;16.90;;;8.70;99.90;;;;;;12265935;28;20051;-90
2021/11/14 11:45:39;;;;;;;26.42;17.27;;;8.60;99.90;;;;;;12249481;28;20121;-89
2021/11/14 11:51:49;;;;;;;26.10;16.75;;;8.60;99.90;;;;;;12262457;28;20055;-89
2021/11/14 11:57:53;;;;;;;28.08;18.15;;;8.60;99.90;;;;;;12257073;28;20781;-89
2021/11/14 12:04:10;;;;;;;30.95;18.75;;;8.60;99.90;;;;;;12250716;28;20047;-87
2021/11/14 12:10:28;;;;;;;31.55;18.85;;;8.60;99.90;;;;;;12264307;28;20109;-88
2021/11/14 12:16:32;;;;;;;33.30;19.63;;;8.60;99.90;;;;;;12252729;28;20063;-88
2021/11/14 12:22:47;;;;;;;35.78;20.92;;;8.60;99.90;;;;;;12252297;28;20086;-87
2021/11/14 12:28:53;;;;;;;33.70;21.38;;;8.60;99.90;;;;;;12244265;28;21006;-89
2021/11/14 12:35:03;;;;;;;34.45;20.70;;;8.60;99.90;;;;;;12250451;28;20097;-89
2021/11/14 12:41:08;;;;;;;34.97;19.73;;;8.60;99.90;;;;;;12252790;28;20488;-89
2021/11/14 12:47:17;;;;;;;;;;;8.60;99.90;;;;;;12267487;28;20105;-87
2021/11/14 12:53:20;;;;;;;33.90;19.60;;;8.70;99.90;;;;;;12266741;28;19934;-88
2021/11/14 12:59:27;;;;;;;34.47;21.33;;;8.70;99.90;;;;;;12252378;28;20070;-89
2021/11/14 13:05:40;;;;;;;38.63;22.17;;;8.70;99.90;;;;;;12247292;28;20078;-89
2021/11/14 13:11:42;;;;;;;43.38;21.10;;;8.70;99.90;;;;;;12261205;28;20047;-89
2021/11/14 13:17:50;;;;;;;33.55;20.73;;;8.70;99.90;;;;;;12262310;28;20082;-87
2021/11/14 13:24:02;;;;;;;37.90;19.17;;;8.70;99.90;;;;;;12274364;28;20158;-88
2021/11/14 13:30:05;;;;;;;35.35;20.67;;;8.70;99.90;;;;;;12280248;28;20070;-89
2021/11/14 13:36:09;;;;;;;34.03;20.75;;;8.70;99.90;;;;;;12250641;28;20466;-89
2021/11/14 13:42:13;;;;;;;32.63;19.30;;;8.60;99.90;;;;;;12244794;28;20061;-87
2021/11/14 13:48:15;;;;;;;32.03;19.07;;;8.60;99.90;;;;;;12248778;28;20058;-89
2021/11/14 13:54:17;;;;;;;30.98;19.10;;;8.50;99.90;;;;;;12249121;28;20162;-89
2021/11/14 14:00:24;;;;;;;32.90;18.83;;;8.50;99.90;;;;;;12259565;28;20097;-89
2021/11/14 14:06:29;;;;;;;30.05;18.05;;;8.40;99.90;;;;;;12240128;28;20055;-89
2021/11/14 14:12:31;;;;;;;29.50;18.55;;;8.40;99.90;;;;;;12248010;28;20435;-87
2021/11/14 14:18:38;;;;;;;30.23;17.30;;;8.40;99.90;;;;;;12249895;28;20059;-88
2021/11/14 14:24:47;;;;;;;27.15;16.65;;;8.40;99.90;;;;;;12246535;28;20372;-90
2021/11/14 14:30:56;;;;;;;30.67;17.75;;;8.30;99.90;;;;;;12260662;28;20054;-88
2021/11/14 14:37:00;;;;;;;31.70;17.90;;;8.20;99.90;;;;;;12261394;28;20051;-88
2021/11/14 14:43:13;;;;;;;33.33;18.55;;;8.20;99.90;;;;;;12255720;28;20130;-88
2021/11/14 14:49:20;;;;;;;32.97;18.55;;;8.20;99.90;;;;;;12256421;28;20643;-90
2021/11/14 14:55:24;;;;;;;34.22;18.13;;;8.20;99.90;;;;;;12270861;28;20103;-87
2021/11/14 15:01:29;;;;;;;31.35;17.73;;;8.10;99.90;;;;;;12256475;28;20579;-88
2021/11/14 15:07:31;;;;;;;31.95;17.63;;;8.00;99.90;;;;;;12254037;28;20062;-88
2021/11/14 15:13:34;;;;;;;31.77;17.40;;;8.00;99.90;;;;;;12251202;28;20039;-87
2021/11/14 15:19:35;;;;;;;28.48;17.45;;;8.00;99.90;;;;;;12251330;28;20059;-89
2021/11/14 15:25:43;;;;;;;30.27;17.50;;;8.00;99.90;;;;;;12248266;28;20055;-88
2021/11/14 15:31:50;;;;;;;33.10;15.90;;;8.00;99.90;;;;;;12239375;28;20051;-88
2021/11/14 15:37:58;;;;;;;28.10;16.65;;;8.00;99.90;;;;;;12261074;28;20420;-87
2021/11/14 15:44:00;;;;;;;30.75;16.67;;;7.90;99.90;;;;;;12228375;28;20066;-89
2021/11/14 15:50:06;;;;;;;28.55;15.63;;;7.90;99.90;;;;;;12254370;28;20051;-90
2021/11/14 15:56:08;;;;;;;27.88;15.40;;;7.90;99.90;;;;;;12259050;28;20114;-90
2021/11/14 16:02:10;;;;;;;25.13;13.65;;;7.80;99.90;;;;;;12280281;28;20146;-88
2021/11/14 16:08:13;;;;;;;21.17;12.10;;;7.80;99.90;;;;;;12254760;28;20086;-87
2021/11/14 16:14:15;;;;;;;17.73;10.57;;;7.80;99.90;;;;;;12249636;28;20051;-88
2021/11/14 16:20:21;;;;;;;19.38;13.20;;;7.80;99.90;;;;;;12249695;28;20055;-88
2021/11/14 16:26:24;;;;;;;18.88;12.07;;;7.80;99.90;;;;;;12264877;28;20142;-88
2021/11/14 16:32:29;;;;;;;16.38;10.80;;;7.80;99.90;;;;;;12247292;28;20086;-89
2021/11/14 16:38:31;;;;;;;19.00;12.82;;;7.80;99.90;;;;;;12249900;28;20134;-87
2021/11/14 16:44:34;;;;;;;16.40;10.82;;;7.70;99.90;;;;;;12257201;28;20133;-87
2021/11/14 16:50:49;;;;;;;16.25;10.75;;;7.70;99.90;;;;;;12216100;28;20350;-88
2021/11/14 16:56:59;;;;;;;15.23;10.88;;;7.70;99.90;;;;;;12267601;28;20110;-88
2021/11/14 17:03:06;;;;;;;19.52;12.05;;;7.70;99.90;;;;;;12244028;28;20444;-87
2021/11/14 17:09:11;;;;;;;17.67;11.65;;;7.70;99.90;;;;;;12263199;28;20070;-89
2021/11/14 17:15:13;;;;;;;19.25;12.07;;;7.70;99.90;;;;;;12244910;28;20515;-89
2021/11/14 17:21:23;;;;;;;16.63;11.38;;;7.70;99.90;;;;;;12257037;28;20051;-88
2021/11/14 17:27:30;;;;;;;16.02;10.65;;;7.60;99.90;;;;;;12249493;28;20063;-89
2021/11/14 17:33:32;;;;;;;14.55;9.15;;;7.60;99.90;;;;;;12212480;28;20507;-88
2021/11/14 17:39:35;;;;;;;13.90;9.43;;;7.60;99.90;;;;;;12243977;28;20051;-88
2021/11/14 17:45:37;;;;;;;13.98;8.25;;;7.60;99.90;;;;;;12238148;28;20085;-89
2021/11/14 17:51:39;;;;;;;12.85;7.80;;;7.60;99.90;;;;;;12243984;28;20419;-90
2021/11/14 17:57:41;;;;;;;14.18;8.32;;;7.60;99.90;;;;;;12243099;28;20480;-87
2021/11/14 18:03:46;;;;;;;;;;;7.60;99.90;;;;;;12259784;28;20405;-90
2021/11/14 18:09:49;;;;;;;12.65;8.32;;;7.60;99.90;;;;;;12289951;28;20382;-89
2021/11/14 18:15:53;;;;;;;12.10;8.27;;;7.50;99.90;;;;;;12275217;28;20316;-88
2021/11/14 18:22:00;;;;;;;14.43;8.85;;;7.50;99.90;;;;;;12270467;28;20068;-89
2021/11/14 18:28:04;;;;;;;14.27;9.32;;;7.50;99.90;;;;;;12255663;28;20106;-89
2021/11/14 18:34:06;;;;;;;14.85;9.70;;;7.60;99.90;;;;;;12266936;28;20527;-89
2021/11/14 18:40:10;;;;;;;14.73;9.88;;;7.50;99.90;;;;;;12246052;28;20869;-89
2021/11/14 18:46:13;;;;;;;15.65;10.18;;;7.50;99.90;;;;;;12266317;28;20150;-89
2021/11/14 18:52:16;;;;;;;13.43;9.27;;;7.50;99.90;;;;;;12248250;28;20480;-88
2021/11/14 18:58:20;;;;;;;16.03;9.60;;;7.50;99.90;;;;;;12247996;28;20055;-89
2021/11/14 19:04:23;;;;;;;15.82;9.27;;;7.50;99.90;;;;;;12251953;28;20303;-87
2021/11/14 19:10:25;;;;;;;14.45;9.32;;;7.50;99.90;;;;;;12253940;28;20047;-88
2021/11/14 19:16:27;;;;;;;17.35;9.57;;;7.40;99.90;;;;;;12259220;28;20059;-88
2021/11/14 19:22:30;;;;;;;15.82;9.18;;;7.50;99.90;;;;;;12248630;28;20054;-89
2021/11/14 19:28:33;;;;;;;16.05;9.95;;;7.50;99.90;;;;;;12253267;28;20578;-89
2021/11/14 19:34:36;;;;;;;16.90;10.02;;;7.50;99.90;;;;;;12261400;28;20066;-89
2021/11/14 19:40:40;;;;;;;14.80;9.77;;;7.40;99.90;;;;;;12265189;28;20130;-88
2021/11/14 19:46:42;;;;;;;15.68;9.98;;;7.40;99.90;;;;;;12272159;28;20135;-87
2021/11/14 19:52:45;;;;;;;16.05;10.05;;;7.50;99.90;;;;;;12291560;28;20047;-87
2021/11/14 19:58:47;;;;;;;16.30;10.35;;;7.50;99.90;;;;;;12254631;28;20078;-87
2021/11/14 20:04:50;;;;;;;17.50;11.13;;;7.40;99.90;;;;;;12258812;28;20057;-89
2021/11/14 20:10:52;;;;;;;16.75;10.45;;;7.40;99.90;;;;;;12269565;28;20055;-89
2021/11/14 20:16:54;;;;;;;17.33;10.20;;;7.30;99.90;;;;;;12257130;28;20143;-89
2021/11/14 20:22:56;;;;;;;15.43;11.05;;;7.30;99.90;;;;;;12251859;28;20093;-87
2021/11/14 20:28:59;;;;;;;18.48;11.32;;;7.30;99.90;;;;;;12249830;28;20063;-88
2021/11/14 20:35:02;;;;;;;15.77;11.20;;;7.30;99.90;;;;;;12238602;28;20170;-89
2021/11/14 20:41:04;;;;;;;16.75;10.93;;;7.30;99.90;;;;;;12247592;28;20058;-88
2021/11/14 20:47:08;;;;;;;16.70;11.30;;;7.30;99.90;;;;;;12261017;28;20496;-89
2021/11/14 20:53:14;;;;;;;17.20;10.43;;;7.30;99.90;;;;;;12226733;28;20055;-88
2021/11/14 20:59:30;;;;;;;17.48;11.57;;;7.30;99.90;;;;;;12262185;28;20549;-88
2021/11/14 21:05:32;;;;;;;20.33;13.02;;;7.30;99.90;;;;;;12249484;28;20154;-89
2021/11/14 21:11:35;;;;;;;21.02;13.02;;;7.30;99.90;;;;;;12253548;28;20063;-89
2021/11/14 21:17:39;;;;;;;19.75;12.75;;;7.30;99.90;;;;;;12247178;28;20138;-89
2021/11/14 21:23:41;;;;;;;18.65;12.85;;;7.30;99.90;;;;;;12246289;28;20051;-88
2021/11/14 21:29:46;;;;;;;20.63;12.75;;;7.30;99.90;;;;;;12249377;28;20066;-89
2021/11/14 21:42:09;;;;;;;18.85;13.32;;;7.10;99.90;;;;;;12270967;28;20093;-90
2021/11/14 21:48:12;;;;;;;20.95;13.73;;;7.20;99.90;;;;;;12278530;28;20090;-89
2021/11/14 21:54:20;;;;;;;20.65;14.00;;;7.10;99.90;;;;;;12241400;28;20086;-88
2021/11/14 22:00:24;;;;;;;22.70;14.60;;;7.10;99.90;;;;;;12246923;28;20043;-88
2021/11/14 22:06:26;;;;;;;21.70;15.63;;;7.00;99.90;;;;;;12250490;28;20055;-89
2021/11/14 22:12:28;;;;;;;20.75;14.07;;;7.00;99.90;;;;;;12264014;28;20051;-88
2021/11/14 22:18:30;;;;;;;20.42;13.80;;;7.00;99.90;;;;;;12243045;28;20059;-87
2021/11/14 22:24:32;;;;;;;22.23;15.05;;;7.00;99.90;;;;;;12232439;28;20429;-90
2021/11/14 22:30:35;;;;;;;23.52;14.13;;;7.00;99.90;;;;;;12249147;28;20449;-89
2021/11/14 22:36:38;;;;;;;19.33;13.80;;;7.00;99.90;;;;;;12241376;28;20102;-88
2021/11/14 22:42:40;;;;;;;21.73;14.25;;;7.00;99.90;;;;;;12244016;28;20500;-88
2021/11/14 22:48:43;;;;;;;21.40;13.90;;;6.90;99.90;;;;;;12244287;28;20464;-90
2021/11/14 22:54:46;;;;;;;23.35;14.55;;;6.90;99.90;;;;;;12251808;28;20067;-87
2021/11/14 23:00:57;;;;;;;20.30;13.70;;;6.90;99.90;;;;;;12256241;28;20495;-87
2021/11/14 23:07:05;;;;;;;23.05;14.48;;;6.90;99.90;;;;;;12269763;28;20113;-87
2021/11/14 23:13:09;;;;;;;21.27;14.90;;;6.80;99.90;;;;;;12264803;28;20167;-87
2021/11/14 23:19:13;;;;;;;27.45;16.13;;;6.80;99.90;;;;;;12266218;28;20062;-87
2021/11/14 23:25:18;;;;;;;24.00;15.47;;;6.80;99.90;;;;;;12247120;28;20171;-88
2021/11/14 23:31:21;;;;;;;25.80;16.55;;;6.80;99.90;;;;;;12258816;28;20040;-87
2021/11/14 23:37:23;;;;;;;25.42;16.50;;;6.80;99.90;;;;;;12249090;28;20058;-88
2021/11/14 23:43:28;;;;;;;22.83;15.32;;;6.70;99.90;;;;;;12256060;28;20059;-89
2021/11/14 23:49:30;;;;;;;20.55;13.07;;;6.70;99.90;;;;;;12250399;28;20059;-88
2021/11/14 23:55:36;;;;;;;20.70;13.27;;;6.60;99.90;;;;;;12236942;28;20047;-87
